createdAt,value
2023-01-23T00:04:43.257Z,15.23
2023-01-23T00:09:46.468Z,16.63
2023-01-23T00:14:51.089Z,15.03
2023-01-23T00:19:54.676Z,14.07
2023-01-23T00:24:57.863Z,17.13
2023-01-23T00:30:02.337Z,17.97
2023-01-23T00:35:06.172Z,18.37
2023-01-23T00:40:10.823Z,17.67
2023-01-23T00:45:15.721Z,16.33
2023-01-23T00:50:19.595Z,17.60
2023-01-23T00:55:23.187Z,19.97
2023-01-23T01:00:28.406Z,18.47
2023-01-23T01:05:31.973Z,17.00
2023-01-23T01:10:35.785Z,17.73
2023-01-23T01:15:40.436Z,19.23
2023-01-23T01:20:44.044Z,18.30
2023-01-23T01:25:47.696Z,19.20
2023-01-23T01:30:52.396Z,18.50
2023-01-23T01:35:57.112Z,20.33
2023-01-23T01:41:00.195Z,22.07
2023-01-23T01:46:24.734Z,21.23
2023-01-23T01:51:33.683Z,23.83
2023-01-23T01:56:42.731Z,22.00
2023-01-23T02:01:51.294Z,24.77
2023-01-23T02:06:56.612Z,22.83
2023-01-23T02:11:59.827Z,21.47
2023-01-23T02:17:04.406Z,23.43
2023-01-23T02:22:22.532Z,22.40
2023-01-23T02:27:27.214Z,23.47
2023-01-23T02:32:31.484Z,25.53
2023-01-23T02:37:35.640Z,25.13
2023-01-23T02:42:43.022Z,28.27
2023-01-23T02:47:47.881Z,28.77
2023-01-23T02:52:54.738Z,29.00
2023-01-23T02:58:22.459Z,31.93
2023-01-23T03:03:25.690Z,29.70
2023-01-23T03:08:33.695Z,35.53
2023-01-23T03:13:38.349Z,28.50
2023-01-23T03:18:53.639Z,40.03
2023-01-23T03:23:57.959Z,32.77
2023-01-23T03:29:21.648Z,38.17
2023-01-23T03:34:24.729Z,30.40
2023-01-23T03:39:45.654Z,40.43
2023-01-23T03:44:50.262Z,36.30
2023-01-23T03:49:53.341Z,37.13
2023-01-23T03:54:56.430Z,33.03
2023-01-23T04:00:00.857Z,38.97
2023-01-23T04:05:04.207Z,35.47
2023-01-23T04:10:07.891Z,40.47
2023-01-23T04:15:13.258Z,40.67
2023-01-23T04:20:17.514Z,41.60
2023-01-23T04:25:24.546Z,52.40
2023-01-23T04:30:29.877Z,41.50
2023-01-23T04:35:33.166Z,34.20
2023-01-23T04:40:36.312Z,34.47
2023-01-23T04:45:41.404Z,43.53
2023-01-23T04:50:44.655Z,37.70
2023-01-23T04:55:50.991Z,38.47
2023-01-23T05:00:55.642Z,37.77
2023-01-23T05:05:59.272Z,40.77
2023-01-23T05:11:02.519Z,34.53
2023-01-23T05:16:08.160Z,43.90
2023-01-23T05:21:11.516Z,40.30
2023-01-23T05:26:14.962Z,40.77
2023-01-23T05:31:19.822Z,36.87
2023-01-23T05:36:23.192Z,38.53
2023-01-23T05:41:26.356Z,36.83
2023-01-23T05:46:31.045Z,39.00
2023-01-23T05:51:34.296Z,37.87
2023-01-23T05:56:37.468Z,34.63
2023-01-23T06:01:42.094Z,42.70
2023-01-23T06:06:45.333Z,38.03
2023-01-23T06:11:49.429Z,42.47
2023-01-23T06:16:54.045Z,39.23
2023-01-23T06:21:57.945Z,42.80
2023-01-23T06:27:01.498Z,37.77
2023-01-23T06:32:06.899Z,35.80
2023-01-23T06:37:13.234Z,38.30
2023-01-23T06:42:16.331Z,36.80
2023-01-23T06:47:24.523Z,40.83
2023-01-23T06:52:27.599Z,32.77
2023-01-23T06:57:35.127Z,35.20
2023-01-23T07:02:40.575Z,34.87
2023-01-23T07:07:43.868Z,33.67
2023-01-23T07:12:46.902Z,29.53
2023-01-23T07:17:51.455Z,31.90
2023-01-23T07:22:54.758Z,26.83
2023-01-23T07:27:57.833Z,27.47
2023-01-23T07:33:02.744Z,31.47
2023-01-23T07:38:05.910Z,30.50
2023-01-23T07:43:08.909Z,30.73
2023-01-23T07:48:13.547Z,28.77
2023-01-23T07:53:16.699Z,26.77
2023-01-23T07:58:19.863Z,26.30
2023-01-23T08:03:24.397Z,27.20
2023-01-23T08:08:27.511Z,28.00
2023-01-23T08:13:30.601Z,28.13
2023-01-23T08:18:35.210Z,27.47
2023-01-23T08:23:38.356Z,31.13
2023-01-23T08:28:43.058Z,29.10
2023-01-23T08:33:47.650Z,28.77
2023-01-23T08:38:50.875Z,27.73
2023-01-23T08:44:01.611Z,29.17
2023-01-23T08:49:06.905Z,26.30
2023-01-23T08:54:10.230Z,27.90
2023-01-23T08:59:13.484Z,29.77
2023-01-23T09:04:18.192Z,28.50
2023-01-23T09:09:21.493Z,31.60
2023-01-23T09:14:24.707Z,31.73
2023-01-23T09:19:31.847Z,28.23
2023-01-23T09:24:35.117Z,27.17
2023-01-23T09:29:38.572Z,28.83
2023-01-23T09:34:43.192Z,31.07
2023-01-23T09:39:46.395Z,32.63
2023-01-23T09:44:54.123Z,29.07
2023-01-23T09:50:03.265Z,31.67
2023-01-23T09:55:14.918Z,31.17
2023-01-23T10:00:23.990Z,34.07
2023-01-23T10:05:43.488Z,27.70
2023-01-23T10:10:59.841Z,29.80
2023-01-23T10:16:20.014Z,32.43
2023-01-23T10:21:30.570Z,27.47
2023-01-23T10:26:37.925Z,28.63
2023-01-23T10:31:45.740Z,25.93
2023-01-23T10:37:06.981Z,27.80
2023-01-23T10:42:13.129Z,29.23
2023-01-23T10:47:22.065Z,30.63
2023-01-23T10:52:36.592Z,33.20
2023-01-23T10:57:48.534Z,29.37
2023-01-23T11:02:52.064Z,28.00
2023-01-23T11:07:56.735Z,34.47
2023-01-23T11:13:01.047Z,30.23
2023-01-23T11:18:29.217Z,29.00
2023-01-23T11:23:35.740Z,28.00
2023-01-23T11:28:49.381Z,32.17
2023-01-23T11:33:59.077Z,27.97
2023-01-23T11:39:16.870Z,30.10
2023-01-23T11:44:23.118Z,31.73
2023-01-23T11:49:43.554Z,28.40
2023-01-23T11:55:03.931Z,31.07
2023-01-23T12:00:22.029Z,27.83
2023-01-23T12:06:06.057Z,25.70
2023-01-23T12:11:22.414Z,25.87
2023-01-23T12:16:34.646Z,24.97
2023-01-23T12:21:45.555Z,25.57
2023-01-23T12:27:02.719Z,26.03
2023-01-23T12:32:18.760Z,23.27
2023-01-23T12:37:46.335Z,25.00
2023-01-23T12:42:55.312Z,27.10
2023-01-23T12:48:06.149Z,23.23
2023-01-23T12:53:12.385Z,25.17
2023-01-23T12:58:19.822Z,27.10
2023-01-23T13:03:59.305Z,24.90
2023-01-23T13:09:17.867Z,26.13
2023-01-23T13:15:03.203Z,22.70
2023-01-23T13:20:46.071Z,23.97
2023-01-23T13:25:49.523Z,25.67
2023-01-23T13:31:03.567Z,25.77
2023-01-23T13:36:14.398Z,27.47
2023-01-23T13:41:31.006Z,27.10
2023-01-23T14:25:18.108Z,32.50
2023-01-23T14:30:27.188Z,35.33
2023-01-23T14:35:33.843Z,31.10
2023-01-23T14:40:49.405Z,34.03
2023-01-23T14:46:02.482Z,36.53
2023-01-23T14:51:10.757Z,30.73
2023-01-23T14:56:14.651Z,32.43
2023-01-23T15:01:18.231Z,30.97
2023-01-23T15:06:24.649Z,34.63
2023-01-23T15:11:29.349Z,34.10
2023-01-23T15:16:38.253Z,35.47
2023-01-23T15:21:43.451Z,34.30
2023-01-23T15:27:05.454Z,38.40
2023-01-23T15:32:18.146Z,32.47
2023-01-23T15:37:25.497Z,34.40
2023-01-23T15:42:32.538Z,33.37
2023-01-23T15:47:36.154Z,38.17
2023-01-23T15:52:50.032Z,35.40
2023-01-23T15:57:53.597Z,34.30
2023-01-23T16:03:00.006Z,36.53
2023-01-23T16:08:06.957Z,39.23
2023-01-23T16:13:17.127Z,39.37
2023-01-23T16:18:20.767Z,37.40
2023-01-23T16:23:25.936Z,35.07
2023-01-23T16:28:30.715Z,34.63
2023-01-23T16:33:33.936Z,35.20
2023-01-23T16:38:38.744Z,39.10
2023-01-23T16:43:44.510Z,32.97
2023-01-23T16:48:50.605Z,37.50
2023-01-23T16:54:00.725Z,35.43
2023-01-23T16:59:07.890Z,35.13
2023-01-23T17:04:13.785Z,33.87
2023-01-23T17:09:19.131Z,31.27
2023-01-23T17:14:25.948Z,32.73
2023-01-23T17:19:35.233Z,34.63
2023-01-23T17:24:43.405Z,33.83
2023-01-23T17:29:51.627Z,32.87
2023-01-23T17:34:57.810Z,35.00
2023-01-23T17:40:02.441Z,39.97
2023-01-23T17:45:06.023Z,38.60
2023-01-23T17:50:19.218Z,36.90
2023-01-23T17:55:28.395Z,34.30
2023-01-23T18:00:31.551Z,37.53
2023-01-23T18:05:45.070Z,33.77
2023-01-23T18:11:02.475Z,36.83
2023-01-23T18:16:15.442Z,35.07
2023-01-23T18:21:20.710Z,37.40
2023-01-23T18:26:45.794Z,36.80
2023-01-23T18:32:02.586Z,41.17
2023-01-23T18:37:15.648Z,36.90
2023-01-23T18:42:25.479Z,38.07
2023-01-23T18:47:29.234Z,42.30
2023-01-23T18:52:45.975Z,38.77
2023-01-23T18:58:28.300Z,45.53
2023-01-23T19:03:43.636Z,39.10
2023-01-23T19:08:47.979Z,37.60
2023-01-23T19:14:04.663Z,36.87
2023-01-23T19:19:21.586Z,32.00
2023-01-23T19:24:39.743Z,34.53
2023-01-23T19:29:45.444Z,30.87
2023-01-23T19:34:48.632Z,32.97
2023-01-23T19:39:51.819Z,32.77
2023-01-23T19:44:56.359Z,29.80
2023-01-23T19:49:59.485Z,29.47
2023-01-23T19:55:02.714Z,26.13
2023-01-23T20:00:10.004Z,27.30
2023-01-23T20:05:13.129Z,26.90
2023-01-23T20:10:16.705Z,25.67
2023-01-23T20:15:24.099Z,27.97
2023-01-23T20:20:27.436Z,29.10
2023-01-23T20:25:30.760Z,29.80
2023-01-23T20:30:35.347Z,27.13
2023-01-23T20:35:39.738Z,30.73
2023-01-23T20:40:42.869Z,28.53
2023-01-23T20:45:48.751Z,28.17
2023-01-23T20:50:54.386Z,27.50
2023-01-23T20:55:59.053Z,30.83
2023-01-23T21:01:03.686Z,29.00
2023-01-23T21:06:07.225Z,26.83
2023-01-23T21:11:12.262Z,29.97
2023-01-23T21:16:18.234Z,32.57
2023-01-23T21:21:23.352Z,27.10
2023-01-23T21:26:28.541Z,54.90
2023-01-23T21:31:37.130Z,31.40
2023-01-23T21:36:42.035Z,24.80
2023-01-23T21:41:46.059Z,25.60
2023-01-23T21:46:50.789Z,28.63
2023-01-23T21:51:54.031Z,25.80
2023-01-23T21:56:57.336Z,28.87
2023-01-23T22:02:02.383Z,29.67
2023-01-23T22:07:05.681Z,27.30
2023-01-23T22:12:09.301Z,28.37
2023-01-23T22:17:13.992Z,27.30
2023-01-23T22:22:18.263Z,28.27
2023-01-23T22:27:23.287Z,27.90
2023-01-23T22:32:27.958Z,26.40
2023-01-23T22:37:34.430Z,24.53
2023-01-23T22:42:39.959Z,27.00
2023-01-23T22:47:44.555Z,24.67
2023-01-23T22:52:48.013Z,24.10
2023-01-23T22:57:53.590Z,26.40
2023-01-23T23:02:58.626Z,24.43
2023-01-23T23:08:02.190Z,26.43
2023-01-23T23:13:06.789Z,24.47
2023-01-23T23:18:11.931Z,24.73
2023-01-23T23:23:15.220Z,27.53
2023-01-23T23:28:18.440Z,24.73
2023-01-23T23:33:23.203Z,26.90
2023-01-23T23:38:26.471Z,26.80
2023-01-23T23:43:30.551Z,23.07
2023-01-23T23:48:37.702Z,23.57
2023-01-23T23:53:41.076Z,24.77
2023-01-23T23:58:44.376Z,25.53
